sensor_id;sensor_type;location;lat;lon;timestamp;P1;durP1;ratioP1;P2;durP2;ratioP2
60314;SDS011;46159;42.550;21.904;2024-01-25T00:00:00;57.80;;;34.42;;
60314;SDS011;46159;42.550;21.904;2024-01-25T00:02:26;84.80;;;50.80;;
60314;SDS011;46159;42.550;21.904;2024-01-25T00:04:52;102.95;;;64.68;;
60314;SDS011;46159;42.550;21.904;2024-01-25T00:07:18;138.63;;;78.70;;
60314;SDS011;46159;42.550;21.904;2024-01-25T00:09:44;132.63;;;77.22;;
60314;SDS011;46159;42.550;21.904;2024-01-25T00:12:10;123.40;;;77.05;;
60314;SDS011;46159;42.550;21.904;2024-01-25T00:14:36;150.77;;;89.63;;
60314;SDS011;46159;42.550;21.904;2024-01-25T00:17:02;177.95;;;102.07;;
60314;SDS011;46159;42.550;21.904;2024-01-25T00:19:28;173.68;;;100.30;;
60314;SDS011;46159;42.550;21.904;2024-01-25T00:21:54;186.75;;;110.22;;
60314;SDS011;46159;42.550;21.904;2024-01-25T00:24:21;169.80;;;102.82;;
60314;SDS011;46159;42.550;21.904;2024-01-25T00:26:47;211.48;;;123.22;;
60314;SDS011;46159;42.550;21.904;2024-01-25T00:29:13;242.27;;;141.82;;
60314;SDS011;46159;42.550;21.904;2024-01-25T00:31:40;255.00;;;155.10;;
60314;SDS011;46159;42.550;21.904;2024-01-25T00:34:06;239.80;;;142.55;;
60314;SDS011;46159;42.550;21.904;2024-01-25T00:36:32;196.30;;;123.05;;
60314;SDS011;46159;42.550;21.904;2024-01-25T00:38:59;193.45;;;118.93;;
60314;SDS011;46159;42.550;21.904;2024-01-25T00:41:25;160.20;;;100.07;;
60314;SDS011;46159;42.550;21.904;2024-01-25T00:43:51;124.60;;;79.68;;
60314;SDS011;46159;42.550;21.904;2024-01-25T00:46:17;125.03;;;77.90;;
60314;SDS011;46159;42.550;21.904;2024-01-25T00:48:44;131.60;;;85.05;;
60314;SDS011;46159;42.550;21.904;2024-01-25T00:51:14;122.22;;;75.78;;
60314;SDS011;46159;42.550;21.904;2024-01-25T00:53:41;109.65;;;68.95;;
60314;SDS011;46159;42.550;21.904;2024-01-25T00:56:07;110.18;;;69.55;;
60314;SDS011;46159;42.550;21.904;2024-01-25T00:58:33;119.90;;;76.00;;
60314;SDS011;46159;42.550;21.904;2024-01-25T01:01:00;134.15;;;82.13;;
60314;SDS011;46159;42.550;21.904;2024-01-25T01:03:26;127.03;;;77.10;;
60314;SDS011;46159;42.550;21.904;2024-01-25T01:05:52;130.50;;;81.47;;
60314;SDS011;46159;42.550;21.904;2024-01-25T01:08:19;128.55;;;76.45;;
60314;SDS011;46159;42.550;21.904;2024-01-25T01:10:45;109.78;;;68.78;;
60314;SDS011;46159;42.550;21.904;2024-01-25T01:13:11;97.50;;;60.72;;
60314;SDS011;46159;42.550;21.904;2024-01-25T01:15:37;110.72;;;67.47;;
60314;SDS011;46159;42.550;21.904;2024-01-25T01:18:04;99.10;;;64.95;;
60314;SDS011;46159;42.550;21.904;2024-01-25T01:20:32;107.55;;;65.88;;
60314;SDS011;46159;42.550;21.904;2024-01-25T01:22:59;107.85;;;64.60;;
60314;SDS011;46159;42.550;21.904;2024-01-25T01:25:25;103.80;;;62.72;;
60314;SDS011;46159;42.550;21.904;2024-01-25T01:27:51;103.93;;;61.65;;
60314;SDS011;46159;42.550;21.904;2024-01-25T01:30:17;102.30;;;61.00;;
60314;SDS011;46159;42.550;21.904;2024-01-25T01:32:43;109.35;;;63.72;;
60314;SDS011;46159;42.550;21.904;2024-01-25T01:35:09;110.40;;;65.40;;
60314;SDS011;46159;42.550;21.904;2024-01-25T01:37:35;106.68;;;67.32;;
60314;SDS011;46159;42.550;21.904;2024-01-25T01:40:01;114.40;;;68.93;;
60314;SDS011;46159;42.550;21.904;2024-01-25T01:42:27;109.28;;;64.78;;
60314;SDS011;46159;42.550;21.904;2024-01-25T01:44:53;117.25;;;69.95;;
60314;SDS011;46159;42.550;21.904;2024-01-25T01:47:20;108.13;;;69.45;;
60314;SDS011;46159;42.550;21.904;2024-01-25T01:49:46;118.43;;;71.20;;
60314;SDS011;46159;42.550;21.904;2024-01-25T01:52:12;109.10;;;66.82;;
60314;SDS011;46159;42.550;21.904;2024-01-25T01:54:38;104.07;;;65.32;;
60314;SDS011;46159;42.550;21.904;2024-01-25T01:57:05;117.93;;;70.72;;
60314;SDS011;46159;42.550;21.904;2024-01-25T01:59:32;102.55;;;64.50;;
60314;SDS011;46159;42.550;21.904;2024-01-25T02:01:58;108.15;;;66.18;;
60314;SDS011;46159;42.550;21.904;2024-01-25T02:04:25;113.32;;;70.88;;
60314;SDS011;46159;42.550;21.904;2024-01-25T02:06:51;103.40;;;63.85;;
60314;SDS011;46159;42.550;21.904;2024-01-25T02:09:17;101.07;;;65.05;;
60314;SDS011;46159;42.550;21.904;2024-01-25T02:11:43;101.05;;;64.97;;
60314;SDS011;46159;42.550;21.904;2024-01-25T02:14:09;98.80;;;62.60;;
60314;SDS011;46159;42.550;21.904;2024-01-25T02:16:37;114.18;;;66.45;;
60314;SDS011;46159;42.550;21.904;2024-01-25T02:19:03;159.68;;;94.85;;
60314;SDS011;46159;42.550;21.904;2024-01-25T02:21:29;145.13;;;85.38;;
60314;SDS011;46159;42.550;21.904;2024-01-25T02:23:55;144.07;;;85.28;;
60314;SDS011;46159;42.550;21.904;2024-01-25T02:26:21;114.32;;;70.50;;
60314;SDS011;46159;42.550;21.904;2024-01-25T02:28:47;128.90;;;79.03;;
60314;SDS011;46159;42.550;21.904;2024-01-25T02:31:13;187.82;;;110.80;;
60314;SDS011;46159;42.550;21.904;2024-01-25T02:33:39;165.32;;;98.35;;
60314;SDS011;46159;42.550;21.904;2024-01-25T02:36:06;190.18;;;116.28;;
60314;SDS011;46159;42.550;21.904;2024-01-25T02:38:32;161.63;;;99.35;;
60314;SDS011;46159;42.550;21.904;2024-01-25T02:40:58;152.85;;;90.22;;
60314;SDS011;46159;42.550;21.904;2024-01-25T02:43:24;170.45;;;102.72;;
60314;SDS011;46159;42.550;21.904;2024-01-25T02:45:50;159.00;;;97.97;;
60314;SDS011;46159;42.550;21.904;2024-01-25T02:48:16;150.73;;;91.10;;
60314;SDS011;46159;42.550;21.904;2024-01-25T02:50:42;133.80;;;81.43;;
60314;SDS011;46159;42.550;21.904;2024-01-25T02:53:08;128.50;;;78.57;;
60314;SDS011;46159;42.550;21.904;2024-01-25T02:55:34;130.18;;;76.22;;
60314;SDS011;46159;42.550;21.904;2024-01-25T02:58:00;120.18;;;76.45;;
60314;SDS011;46159;42.550;21.904;2024-01-25T03:00:26;117.10;;;73.13;;
60314;SDS011;46159;42.550;21.904;2024-01-25T03:02:52;111.60;;;72.15;;
60314;SDS011;46159;42.550;21.904;2024-01-25T03:05:19;88.88;;;56.53;;
60314;SDS011;46159;42.550;21.904;2024-01-25T03:07:45;83.53;;;53.65;;
60314;SDS011;46159;42.550;21.904;2024-01-25T03:10:11;66.85;;;45.53;;
60314;SDS011;46159;42.550;21.904;2024-01-25T03:12:37;104.68;;;63.63;;
60314;SDS011;46159;42.550;21.904;2024-01-25T03:15:03;97.00;;;62.00;;
60314;SDS011;46159;42.550;21.904;2024-01-25T03:17:29;76.05;;;48.70;;
60314;SDS011;46159;42.550;21.904;2024-01-25T03:19:55;77.95;;;50.97;;
60314;SDS011;46159;42.550;21.904;2024-01-25T03:22:21;89.22;;;55.72;;
60314;SDS011;46159;42.550;21.904;2024-01-25T03:24:47;107.05;;;64.82;;
60314;SDS011;46159;42.550;21.904;2024-01-25T03:27:13;86.55;;;53.95;;
60314;SDS011;46159;42.550;21.904;2024-01-25T03:29:43;77.65;;;52.15;;
60314;SDS011;46159;42.550;21.904;2024-01-25T03:32:09;86.18;;;55.05;;
60314;SDS011;46159;42.550;21.904;2024-01-25T03:34:36;85.97;;;53.63;;
60314;SDS011;46159;42.550;21.904;2024-01-25T03:37:02;90.07;;;58.00;;
60314;SDS011;46159;42.550;21.904;2024-01-25T03:39:28;84.45;;;54.95;;
60314;SDS011;46159;42.550;21.904;2024-01-25T03:41:54;82.60;;;51.85;;
60314;SDS011;46159;42.550;21.904;2024-01-25T03:44:20;95.25;;;59.08;;
60314;SDS011;46159;42.550;21.904;2024-01-25T03:46:46;119.90;;;72.57;;
60314;SDS011;46159;42.550;21.904;2024-01-25T03:49:12;115.57;;;69.88;;
60314;SDS011;46159;42.550;21.904;2024-01-25T03:51:38;103.97;;;59.88;;
60314;SDS011;46159;42.550;21.904;2024-01-25T03:54:04;88.97;;;55.70;;
60314;SDS011;46159;42.550;21.904;2024-01-25T03:56:30;80.45;;;49.67;;
60314;SDS011;46159;42.550;21.904;2024-01-25T03:58:57;80.95;;;51.95;;
60314;SDS011;46159;42.550;21.904;2024-01-25T04:01:23;99.82;;;57.30;;
60314;SDS011;46159;42.550;21.904;2024-01-25T04:03:49;110.32;;;65.15;;
60314;SDS011;46159;42.550;21.904;2024-01-25T04:06:15;136.07;;;78.65;;
60314;SDS011;46159;42.550;21.904;2024-01-25T04:08:42;132.57;;;80.22;;
60314;SDS011;46159;42.550;21.904;2024-01-25T04:11:08;135.68;;;79.65;;
60314;SDS011;46159;42.550;21.904;2024-01-25T04:13:35;124.50;;;75.60;;
60314;SDS011;46159;42.550;21.904;2024-01-25T04:16:01;128.02;;;77.18;;
60314;SDS011;46159;42.550;21.904;2024-01-25T04:18:27;119.22;;;72.00;;
60314;SDS011;46159;42.550;21.904;2024-01-25T04:20:53;107.43;;;68.15;;
60314;SDS011;46159;42.550;21.904;2024-01-25T04:23:19;92.65;;;60.10;;
60314;SDS011;46159;42.550;21.904;2024-01-25T04:25:45;105.60;;;63.08;;
60314;SDS011;46159;42.550;21.904;2024-01-25T04:28:12;115.22;;;67.25;;
60314;SDS011;46159;42.550;21.904;2024-01-25T04:30:38;124.95;;;73.38;;
60314;SDS011;46159;42.550;21.904;2024-01-25T04:33:04;113.25;;;69.65;;
60314;SDS011;46159;42.550;21.904;2024-01-25T04:35:30;93.00;;;56.63;;
60314;SDS011;46159;42.550;21.904;2024-01-25T04:37:56;96.88;;;56.20;;
60314;SDS011;46159;42.550;21.904;2024-01-25T04:40:22;96.03;;;58.47;;
60314;SDS011;46159;42.550;21.904;2024-01-25T04:42:49;95.97;;;58.38;;
60314;SDS011;46159;42.550;21.904;2024-01-25T04:45:15;79.18;;;49.10;;
60314;SDS011;46159;42.550;21.904;2024-01-25T04:47:41;104.47;;;65.40;;
60314;SDS011;46159;42.550;21.904;2024-01-25T04:50:07;136.32;;;81.68;;
60314;SDS011;46159;42.550;21.904;2024-01-25T04:52:33;129.32;;;79.10;;
60314;SDS011;46159;42.550;21.904;2024-01-25T04:54:59;124.80;;;75.80;;
60314;SDS011;46159;42.550;21.904;2024-01-25T04:57:25;152.80;;;76.25;;
60314;SDS011;46159;42.550;21.904;2024-01-25T04:59:51;144.57;;;73.75;;
60314;SDS011;46159;42.550;21.904;2024-01-25T05:02:17;101.22;;;62.95;;
60314;SDS011;46159;42.550;21.904;2024-01-25T05:04:44;104.20;;;63.72;;
60314;SDS011;46159;42.550;21.904;2024-01-25T05:07:10;286.50;;;127.00;;
60314;SDS011;46159;42.550;21.904;2024-01-25T05:09:36;115.60;;;63.95;;
60314;SDS011;46159;42.550;21.904;2024-01-25T05:12:02;104.72;;;62.45;;
60314;SDS011;46159;42.550;21.904;2024-01-25T05:14:28;108.43;;;66.30;;
60314;SDS011;46159;42.550;21.904;2024-01-25T05:16:54;101.82;;;66.53;;
60314;SDS011;46159;42.550;21.904;2024-01-25T05:19:20;109.32;;;68.78;;
60314;SDS011;46159;42.550;21.904;2024-01-25T05:21:46;109.50;;;69.20;;
60314;SDS011;46159;42.550;21.904;2024-01-25T05:24:13;114.32;;;69.93;;
60314;SDS011;46159;42.550;21.904;2024-01-25T05:26:39;115.63;;;71.85;;
60314;SDS011;46159;42.550;21.904;2024-01-25T05:29:05;117.75;;;74.15;;
60314;SDS011;46159;42.550;21.904;2024-01-25T05:31:31;120.90;;;75.80;;
60314;SDS011;46159;42.550;21.904;2024-01-25T05:33:57;121.20;;;76.20;;
60314;SDS011;46159;42.550;21.904;2024-01-25T05:36:23;116.85;;;76.50;;
60314;SDS011;46159;42.550;21.904;2024-01-25T05:38:49;121.32;;;73.97;;
60314;SDS011;46159;42.550;21.904;2024-01-25T05:41:15;109.88;;;71.70;;
60314;SDS011;46159;42.550;21.904;2024-01-25T05:43:41;97.68;;;62.30;;
60314;SDS011;46159;42.550;21.904;2024-01-25T05:46:07;157.27;;;91.47;;
60314;SDS011;46159;42.550;21.904;2024-01-25T05:48:34;140.18;;;87.22;;
60314;SDS011;46159;42.550;21.904;2024-01-25T05:51:00;158.60;;;96.53;;
60314;SDS011;46159;42.550;21.904;2024-01-25T05:53:26;141.43;;;88.82;;
60314;SDS011;46159;42.550;21.904;2024-01-25T05:55:53;145.57;;;89.78;;
60314;SDS011;46159;42.550;21.904;2024-01-25T05:58:19;155.98;;;94.43;;
60314;SDS011;46159;42.550;21.904;2024-01-25T06:00:45;234.52;;;120.13;;
60314;SDS011;46159;42.550;21.904;2024-01-25T06:03:11;223.82;;;121.20;;
60314;SDS011;46159;42.550;21.904;2024-01-25T06:05:37;220.48;;;128.27;;
60314;SDS011;46159;42.550;21.904;2024-01-25T06:08:03;182.45;;;111.35;;
60314;SDS011;46159;42.550;21.904;2024-01-25T06:10:29;169.77;;;103.38;;
60314;SDS011;46159;42.550;21.904;2024-01-25T06:12:55;208.02;;;111.47;;
60314;SDS011;46159;42.550;21.904;2024-01-25T06:15:21;170.40;;;97.95;;
60314;SDS011;46159;42.550;21.904;2024-01-25T06:17:47;153.32;;;89.38;;
60314;SDS011;46159;42.550;21.904;2024-01-25T06:20:13;175.70;;;98.95;;
60314;SDS011;46159;42.550;21.904;2024-01-25T06:22:39;153.68;;;91.70;;
60314;SDS011;46159;42.550;21.904;2024-01-25T06:25:06;202.32;;;115.30;;
60314;SDS011;46159;42.550;21.904;2024-01-25T06:27:32;136.50;;;83.50;;
60314;SDS011;46159;42.550;21.904;2024-01-25T06:29:58;177.43;;;109.60;;
60314;SDS011;46159;42.550;21.904;2024-01-25T06:32:24;204.27;;;121.20;;
60314;SDS011;46159;42.550;21.904;2024-01-25T06:34:50;261.88;;;147.65;;
60314;SDS011;46159;42.550;21.904;2024-01-25T06:37:16;261.85;;;151.38;;
60314;SDS011;46159;42.550;21.904;2024-01-25T06:39:43;257.00;;;148.90;;
60314;SDS011;46159;42.550;21.904;2024-01-25T06:42:10;279.75;;;163.07;;
60314;SDS011;46159;42.550;21.904;2024-01-25T06:44:37;286.80;;;173.65;;
60314;SDS011;46159;42.550;21.904;2024-01-25T06:47:03;330.00;;;207.55;;
60314;SDS011;46159;42.550;21.904;2024-01-25T06:49:29;340.13;;;209.57;;
60314;SDS011;46159;42.550;21.904;2024-01-25T06:51:55;375.08;;;237.65;;
60314;SDS011;46159;42.550;21.904;2024-01-25T06:54:21;375.67;;;235.63;;
60314;SDS011;46159;42.550;21.904;2024-01-25T06:56:48;373.20;;;229.73;;
60314;SDS011;46159;42.550;21.904;2024-01-25T06:59:16;390.63;;;250.48;;
60314;SDS011;46159;42.550;21.904;2024-01-25T07:01:42;395.83;;;261.67;;
60314;SDS011;46159;42.550;21.904;2024-01-25T07:04:08;418.35;;;279.00;;
60314;SDS011;46159;42.550;21.904;2024-01-25T07:06:34;351.75;;;230.98;;
60314;SDS011;46159;42.550;21.904;2024-01-25T07:09:01;339.25;;;222.95;;
60314;SDS011;46159;42.550;21.904;2024-01-25T07:11:28;336.85;;;224.63;;
60314;SDS011;46159;42.550;21.904;2024-01-25T07:13:54;293.35;;;192.90;;
60314;SDS011;46159;42.550;21.904;2024-01-25T07:16:21;275.35;;;179.30;;
60314;SDS011;46159;42.550;21.904;2024-01-25T07:18:48;234.65;;;158.30;;
60314;SDS011;46159;42.550;21.904;2024-01-25T07:21:14;247.13;;;160.98;;
60314;SDS011;46159;42.550;21.904;2024-01-25T07:23:40;251.27;;;163.73;;
60314;SDS011;46159;42.550;21.904;2024-01-25T07:26:07;242.27;;;159.60;;
60314;SDS011;46159;42.550;21.904;2024-01-25T07:28:33;247.27;;;162.80;;
60314;SDS011;46159;42.550;21.904;2024-01-25T07:30:59;251.65;;;160.18;;
60314;SDS011;46159;42.550;21.904;2024-01-25T07:33:25;302.15;;;198.65;;
60314;SDS011;46159;42.550;21.904;2024-01-25T07:35:51;305.65;;;209.85;;
60314;SDS011;46159;42.550;21.904;2024-01-25T07:38:17;266.30;;;184.85;;
60314;SDS011;46159;42.550;21.904;2024-01-25T07:40:43;245.68;;;169.57;;
60314;SDS011;46159;42.550;21.904;2024-01-25T07:43:09;226.32;;;155.00;;
60314;SDS011;46159;42.550;21.904;2024-01-25T07:45:35;197.32;;;131.77;;
60314;SDS011;46159;42.550;21.904;2024-01-25T07:48:01;143.75;;;95.10;;
60314;SDS011;46159;42.550;21.904;2024-01-25T07:50:28;173.23;;;116.68;;
60314;SDS011;46159;42.550;21.904;2024-01-25T07:52:54;146.75;;;99.40;;
60314;SDS011;46159;42.550;21.904;2024-01-25T07:55:20;151.63;;;103.28;;
60314;SDS011;46159;42.550;21.904;2024-01-25T07:57:46;146.57;;;98.18;;
60314;SDS011;46159;42.550;21.904;2024-01-25T08:00:12;145.68;;;96.38;;
60314;SDS011;46159;42.550;21.904;2024-01-25T08:02:38;137.65;;;94.32;;
60314;SDS011;46159;42.550;21.904;2024-01-25T08:05:06;147.13;;;94.22;;
60314;SDS011;46159;42.550;21.904;2024-01-25T08:07:32;148.23;;;95.55;;
60314;SDS011;46159;42.550;21.904;2024-01-25T08:09:58;141.23;;;92.22;;
60314;SDS011;46159;42.550;21.904;2024-01-25T08:12:25;140.40;;;95.22;;
60314;SDS011;46159;42.550;21.904;2024-01-25T08:14:51;133.80;;;91.07;;
60314;SDS011;46159;42.550;21.904;2024-01-25T08:17:17;117.72;;;80.97;;
60314;SDS011;46159;42.550;21.904;2024-01-25T08:19:44;127.85;;;87.97;;
60314;SDS011;46159;42.550;21.904;2024-01-25T08:22:11;119.32;;;83.00;;
60314;SDS011;46159;42.550;21.904;2024-01-25T08:24:38;121.90;;;81.18;;
60314;SDS011;46159;42.550;21.904;2024-01-25T08:27:04;121.03;;;81.90;;
60314;SDS011;46159;42.550;21.904;2024-01-25T08:29:32;117.65;;;86.30;;
60314;SDS011;46159;42.550;21.904;2024-01-25T08:31:58;130.88;;;88.10;;
60314;SDS011;46159;42.550;21.904;2024-01-25T08:34:24;122.75;;;83.15;;
60314;SDS011;46159;42.550;21.904;2024-01-25T08:36:52;115.20;;;81.68;;
60314;SDS011;46159;42.550;21.904;2024-01-25T08:39:18;129.10;;;86.90;;
60314;SDS011;46159;42.550;21.904;2024-01-25T08:41:44;112.50;;;78.60;;
60314;SDS011;46159;42.550;21.904;2024-01-25T08:44:10;82.07;;;57.67;;
60314;SDS011;46159;42.550;21.904;2024-01-25T08:46:36;122.25;;;78.93;;
60314;SDS011;46159;42.550;21.904;2024-01-25T08:49:03;128.07;;;90.95;;
60314;SDS011;46159;42.550;21.904;2024-01-25T08:51:33;168.00;;;112.68;;
60314;SDS011;46159;42.550;21.904;2024-01-25T08:53:59;208.40;;;142.32;;
60314;SDS011;46159;42.550;21.904;2024-01-25T08:56:26;240.20;;;158.55;;
60314;SDS011;46159;42.550;21.904;2024-01-25T08:58:52;242.13;;;172.77;;
60314;SDS011;46159;42.550;21.904;2024-01-25T09:01:18;242.68;;;174.88;;
60314;SDS011;46159;42.550;21.904;2024-01-25T09:03:44;251.77;;;180.93;;
60314;SDS011;46159;42.550;21.904;2024-01-25T09:06:10;255.55;;;184.02;;
60314;SDS011;46159;42.550;21.904;2024-01-25T09:08:37;250.38;;;178.80;;
60314;SDS011;46159;42.550;21.904;2024-01-25T09:11:03;238.02;;;175.50;;
60314;SDS011;46159;42.550;21.904;2024-01-25T09:13:30;216.82;;;153.20;;
60314;SDS011;46159;42.550;21.904;2024-01-25T09:15:57;199.00;;;143.40;;
60314;SDS011;46159;42.550;21.904;2024-01-25T09:18:23;187.25;;;137.60;;
60314;SDS011;46159;42.550;21.904;2024-01-25T09:20:50;183.57;;;133.00;;
60314;SDS011;46159;42.550;21.904;2024-01-25T09:23:16;184.52;;;137.77;;
60314;SDS011;46159;42.550;21.904;2024-01-25T09:25:43;195.38;;;138.00;;
60314;SDS011;46159;42.550;21.904;2024-01-25T09:28:09;183.77;;;132.82;;
60314;SDS011;46159;42.550;21.904;2024-01-25T09:30:37;171.35;;;127.35;;
60314;SDS011;46159;42.550;21.904;2024-01-25T09:33:04;154.38;;;110.88;;
60314;SDS011;46159;42.550;21.904;2024-01-25T09:35:30;126.07;;;91.90;;
60314;SDS011;46159;42.550;21.904;2024-01-25T09:37:57;101.55;;;72.30;;
60314;SDS011;46159;42.550;21.904;2024-01-25T09:40:23;125.20;;;87.45;;
60314;SDS011;46159;42.550;21.904;2024-01-25T09:42:49;85.85;;;59.92;;
60314;SDS011;46159;42.550;21.904;2024-01-25T09:45:18;96.10;;;70.75;;
60314;SDS011;46159;42.550;21.904;2024-01-25T09:47:45;102.63;;;71.40;;
60314;SDS011;46159;42.550;21.904;2024-01-25T09:50:11;110.13;;;75.15;;
60314;SDS011;46159;42.550;21.904;2024-01-25T09:52:38;100.45;;;70.97;;
60314;SDS011;46159;42.550;21.904;2024-01-25T09:55:05;120.40;;;80.07;;
60314;SDS011;46159;42.550;21.904;2024-01-25T09:57:32;93.75;;;66.18;;
60314;SDS011;46159;42.550;21.904;2024-01-25T10:00:04;88.22;;;59.70;;
60314;SDS011;46159;42.550;21.904;2024-01-25T10:02:31;96.97;;;66.30;;
60314;SDS011;46159;42.550;21.904;2024-01-25T10:04:57;86.45;;;61.45;;
60314;SDS011;46159;42.550;21.904;2024-01-25T10:07:37;100.85;;;64.68;;
60314;SDS011;46159;42.550;21.904;2024-01-25T10:10:03;103.82;;;70.38;;
60314;SDS011;46159;42.550;21.904;2024-01-25T10:12:30;81.07;;;56.00;;
60314;SDS011;46159;42.550;21.904;2024-01-25T10:14:57;83.78;;;55.72;;
60314;SDS011;46159;42.550;21.904;2024-01-25T10:17:23;98.63;;;70.82;;
60314;SDS011;46159;42.550;21.904;2024-01-25T10:19:49;96.88;;;66.25;;
60314;SDS011;46159;42.550;21.904;2024-01-25T10:22:15;96.63;;;66.88;;
60314;SDS011;46159;42.550;21.904;2024-01-25T10:24:41;86.88;;;59.47;;
60314;SDS011;46159;42.550;21.904;2024-01-25T10:27:08;83.28;;;57.70;;
60314;SDS011;46159;42.550;21.904;2024-01-25T10:29:34;83.00;;;58.33;;
60314;SDS011;46159;42.550;21.904;2024-01-25T10:32:01;56.90;;;41.88;;
60314;SDS011;46159;42.550;21.904;2024-01-25T10:34:28;60.53;;;42.38;;
60314;SDS011;46159;42.550;21.904;2024-01-25T10:36:54;68.53;;;44.90;;
60314;SDS011;46159;42.550;21.904;2024-01-25T10:39:21;63.60;;;44.17;;
60314;SDS011;46159;42.550;21.904;2024-01-25T10:41:47;58.95;;;41.17;;
60314;SDS011;46159;42.550;21.904;2024-01-25T10:44:16;53.08;;;37.85;;
60314;SDS011;46159;42.550;21.904;2024-01-25T10:46:46;65.47;;;43.53;;
60314;SDS011;46159;42.550;21.904;2024-01-25T10:49:12;70.13;;;48.63;;
60314;SDS011;46159;42.550;21.904;2024-01-25T10:51:39;75.13;;;55.20;;
60314;SDS011;46159;42.550;21.904;2024-01-25T10:54:09;76.05;;;50.70;;
60314;SDS011;46159;42.550;21.904;2024-01-25T10:56:36;80.55;;;52.83;;
60314;SDS011;46159;42.550;21.904;2024-01-25T10:59:02;96.53;;;65.80;;
60314;SDS011;46159;42.550;21.904;2024-01-25T11:01:29;107.00;;;74.03;;
60314;SDS011;46159;42.550;21.904;2024-01-25T11:03:55;109.10;;;77.72;;
60314;SDS011;46159;42.550;21.904;2024-01-25T11:06:21;109.32;;;78.55;;
60314;SDS011;46159;42.550;21.904;2024-01-25T11:08:48;113.88;;;83.88;;
60314;SDS011;46159;42.550;21.904;2024-01-25T11:11:14;107.22;;;74.95;;
60314;SDS011;46159;42.550;21.904;2024-01-25T11:13:41;97.55;;;69.30;;
60314;SDS011;46159;42.550;21.904;2024-01-25T11:16:17;100.22;;;71.95;;
60314;SDS011;46159;42.550;21.904;2024-01-25T11:18:50;89.22;;;62.72;;
60314;SDS011;46159;42.550;21.904;2024-01-25T11:23:59;79.55;;;56.70;;
60314;SDS011;46159;42.550;21.904;2024-01-25T11:26:26;91.35;;;62.80;;
60314;SDS011;46159;42.550;21.904;2024-01-25T11:28:52;93.18;;;65.50;;
60314;SDS011;46159;42.550;21.904;2024-01-25T11:31:18;93.45;;;61.97;;
60314;SDS011;46159;42.550;21.904;2024-01-25T11:33:44;114.88;;;75.85;;
60314;SDS011;46159;42.550;21.904;2024-01-25T11:36:11;91.45;;;66.30;;
60314;SDS011;46159;42.550;21.904;2024-01-25T11:38:37;94.22;;;63.58;;
60314;SDS011;46159;42.550;21.904;2024-01-25T11:41:03;88.03;;;61.67;;
60314;SDS011;46159;42.550;21.904;2024-01-25T11:46:09;105.25;;;68.93;;
60314;SDS011;46159;42.550;21.904;2024-01-25T11:48:42;95.30;;;66.35;;
60314;SDS011;46159;42.550;21.904;2024-01-25T11:51:12;97.30;;;66.65;;
60314;SDS011;46159;42.550;21.904;2024-01-25T11:53:53;84.70;;;57.28;;
60314;SDS011;46159;42.550;21.904;2024-01-25T11:56:24;86.38;;;57.55;;
60314;SDS011;46159;42.550;21.904;2024-01-25T11:58:56;85.45;;;58.25;;
60314;SDS011;46159;42.550;21.904;2024-01-25T12:01:25;85.82;;;60.53;;
60314;SDS011;46159;42.550;21.904;2024-01-25T12:04:00;83.28;;;59.30;;
60314;SDS011;46159;42.550;21.904;2024-01-25T12:06:32;96.45;;;67.15;;
60314;SDS011;46159;42.550;21.904;2024-01-25T12:09:05;104.55;;;70.70;;
60314;SDS011;46159;42.550;21.904;2024-01-25T12:11:49;101.25;;;69.40;;
60314;SDS011;46159;42.550;21.904;2024-01-25T12:14:31;91.13;;;64.60;;
60314;SDS011;46159;42.550;21.904;2024-01-25T12:17:00;85.68;;;58.70;;
60314;SDS011;46159;42.550;21.904;2024-01-25T12:19:29;75.80;;;51.97;;
60314;SDS011;46159;42.550;21.904;2024-01-25T12:21:55;64.57;;;44.28;;
60314;SDS011;46159;42.550;21.904;2024-01-25T12:24:25;73.20;;;47.60;;
60314;SDS011;46159;42.550;21.904;2024-01-25T12:26:54;52.55;;;37.13;;
60314;SDS011;46159;42.550;21.904;2024-01-25T12:29:21;56.47;;;38.20;;
60314;SDS011;46159;42.550;21.904;2024-01-25T12:34:56;67.00;;;47.60;;
60314;SDS011;46159;42.550;21.904;2024-01-25T12:37:26;72.43;;;46.22;;
60314;SDS011;46159;42.550;21.904;2024-01-25T12:39:58;68.93;;;46.10;;
60314;SDS011;46159;42.550;21.904;2024-01-25T12:42:27;67.20;;;46.10;;
60314;SDS011;46159;42.550;21.904;2024-01-25T12:44:58;77.93;;;52.58;;
60314;SDS011;46159;42.550;21.904;2024-01-25T12:47:28;105.72;;;63.50;;
60314;SDS011;46159;42.550;21.904;2024-01-25T12:49:58;75.80;;;48.22;;
60314;SDS011;46159;42.550;21.904;2024-01-25T12:52:24;80.43;;;53.53;;
60314;SDS011;46159;42.550;21.904;2024-01-25T12:54:50;92.72;;;59.75;;
60314;SDS011;46159;42.550;21.904;2024-01-25T12:57:16;121.18;;;80.15;;
60314;SDS011;46159;42.550;21.904;2024-01-25T12:59:42;145.25;;;87.70;;
60314;SDS011;46159;42.550;21.904;2024-01-25T13:02:10;120.82;;;78.28;;
60314;SDS011;46159;42.550;21.904;2024-01-25T13:04:39;81.60;;;48.85;;
60314;SDS011;46159;42.550;21.904;2024-01-25T13:07:05;51.25;;;32.30;;
60314;SDS011;46159;42.550;21.904;2024-01-25T13:09:31;36.47;;;19.77;;
60314;SDS011;46159;42.550;21.904;2024-01-25T13:11:59;27.83;;;15.27;;
60314;SDS011;46159;42.550;21.904;2024-01-25T13:14:27;65.10;;;38.55;;
60314;SDS011;46159;42.550;21.904;2024-01-25T13:16:53;38.13;;;20.35;;
60314;SDS011;46159;42.550;21.904;2024-01-25T13:19:19;38.38;;;19.90;;
60314;SDS011;46159;42.550;21.904;2024-01-25T13:21:45;41.75;;;21.40;;
60314;SDS011;46159;42.550;21.904;2024-01-25T13:24:11;32.63;;;16.65;;
60314;SDS011;46159;42.550;21.904;2024-01-25T13:26:37;34.85;;;20.33;;
60314;SDS011;46159;42.550;21.904;2024-01-25T13:29:04;43.47;;;23.48;;
60314;SDS011;46159;42.550;21.904;2024-01-25T13:31:30;49.45;;;27.88;;
60314;SDS011;46159;42.550;21.904;2024-01-25T13:33:56;65.72;;;40.75;;
60314;SDS011;46159;42.550;21.904;2024-01-25T13:36:22;73.45;;;47.10;;
60314;SDS011;46159;42.550;21.904;2024-01-25T13:38:48;73.72;;;44.03;;
60314;SDS011;46159;42.550;21.904;2024-01-25T13:41:14;73.93;;;42.72;;
60314;SDS011;46159;42.550;21.904;2024-01-25T13:43:41;66.00;;;39.45;;
60314;SDS011;46159;42.550;21.904;2024-01-25T13:46:07;70.70;;;42.63;;
60314;SDS011;46159;42.550;21.904;2024-01-25T13:48:33;61.13;;;36.75;;
60314;SDS011;46159;42.550;21.904;2024-01-25T13:51:02;48.60;;;24.85;;
60314;SDS011;46159;42.550;21.904;2024-01-25T13:53:28;49.55;;;28.98;;
60314;SDS011;46159;42.550;21.904;2024-01-25T13:55:55;47.58;;;26.98;;
60314;SDS011;46159;42.550;21.904;2024-01-25T13:58:21;39.60;;;20.70;;
60314;SDS011;46159;42.550;21.904;2024-01-25T14:00:50;32.63;;;17.20;;
60314;SDS011;46159;42.550;21.904;2024-01-25T14:03:16;27.45;;;16.60;;